Time;durP1;ratioP1;P1;durP2;ratioP2;P2;SDS_P1;SDS_P2;PMS_P1;PMS_P2;Temp;Humidity;BMP_temperature;BMP_pressure;BME280_temperature;BME280_humidity;BME280_pressure;Samples;Min_cycle;Max_cycle;Signal;HPM_P1;HPM_P2
2022/01/04 00:00:54;;;;;;;;;;;6.60;99.90;;;;;;5079459;28;19924;-81
2022/01/04 00:03:20;;;;;;;;;;;6.70;99.90;;;;;;5078937;28;19924;-81
2022/01/04 00:05:46;;;;;;;;;;;6.70;99.90;;;;;;5085798;28;19935;-79
2022/01/04 00:08:13;;;;;;;;;;;6.70;99.90;;;;;;5088411;28;20407;-80
2022/01/04 00:10:40;;;;;;;;;;;6.60;99.90;;;;;;5090004;28;19925;-80
2022/01/04 00:13:23;;;;;;;;;;;6.70;99.90;;;;;;5083858;28;20383;-80
2022/01/04 00:15:49;;;;;;;;;;;6.70;99.90;;;;;;5079867;28;19932;-81
2022/01/04 00:18:18;;;;;;;;;;;6.80;99.90;;;;;;5079378;28;19963;-81
2022/01/04 00:20:45;;;;;;;;;;;6.80;99.90;;;;;;5079839;28;20026;-80
2022/01/04 00:23:11;;;;;;;;;;;6.50;99.90;;;;;;5079749;28;19944;-81
2022/01/04 00:25:37;;;;;;;;;;;6.80;99.90;;;;;;5083728;28;19925;-80
2022/01/04 00:28:07;;;;;;;;;;;6.80;99.90;;;;;;5084133;28;19928;-80
2022/01/04 00:30:33;;;;;;;;;;;6.70;99.90;;;;;;5083806;28;19925;-79
2022/01/04 00:33:00;;;;;;;;;;;6.70;99.90;;;;;;5084158;28;19925;-80
2022/01/04 00:35:28;;;;;;;;;;;6.80;99.90;;;;;;5083446;28;20344;-80
2022/01/04 00:37:54;;;;;;;;;;;6.70;99.90;;;;;;5083220;28;20017;-81
2022/01/04 00:40:21;;;;;;;;;;;6.60;99.90;;;;;;5083006;28;19952;-80
2022/01/04 00:42:47;;;;;;;;;;;6.70;99.90;;;;;;5081674;28;20275;-80
2022/01/04 00:45:14;;;;;;;;;;;6.70;99.90;;;;;;5077728;28;19928;-78
2022/01/04 00:47:46;;;;;;;;;;;6.70;99.90;;;;;;5080652;28;19925;-80
2022/01/04 00:50:11;;;;;;;;;;;6.70;99.90;;;;;;5082729;28;19924;-81
2022/01/04 00:52:39;;;;;;;;;;;6.70;99.90;;;;;;5083069;28;19943;-80
2022/01/04 00:55:06;;;;;;;;;;;6.60;99.90;;;;;;5087045;28;19929;-79
2022/01/04 00:57:33;;;;;;;;;;;6.80;99.90;;;;;;5088557;28;20364;-78
2022/01/04 00:59:59;;;;;;;;;;;6.60;99.90;;;;;;5086872;28;20394;-82
2022/01/04 01:02:26;;;;;;;;;;;6.50;99.90;;;;;;5083407;28;19924;-81
2022/01/04 01:04:52;;;;;;;;;;;6.60;99.90;;;;;;5079876;28;19995;-78
2022/01/04 01:07:18;;;;;;;;;;;6.60;99.90;;;;;;5080242;28;19978;-78
2022/01/04 01:10:01;;;;;;;;;;;6.60;99.90;;;;;;5082096;28;19925;-80
2022/01/04 01:12:28;;;;;;;;;;;6.20;99.90;;;;;;5063686;28;19931;-80
2022/01/04 01:14:54;;;;;;;;;;;6.50;99.90;;;;;;5082480;28;19935;-80
2022/01/04 01:17:21;;;;;;;;;;;6.50;99.90;;;;;;5082893;28;19935;-80
2022/01/04 01:19:47;;;;;;;;;;;6.50;99.90;;;;;;5083976;28;19925;-81
2022/01/04 01:22:13;;;;;;;;;;;6.40;99.90;;;;;;5084046;28;19932;-81
2022/01/04 01:24:40;;;;;;;;;;;6.50;99.90;;;;;;5082617;28;20062;-80
2022/01/04 01:27:08;;;;;;;;;;;6.50;99.90;;;;;;5082752;28;19925;-80
2022/01/04 01:29:34;;;;;;;;;;;6.70;99.90;;;;;;5083129;28;19992;-80
2022/01/04 01:32:01;;;;;;;;;;;6.50;99.90;;;;;;5082492;28;19998;-80
2022/01/04 01:34:27;;;;;;;;;;;6.50;99.90;;;;;;5082491;28;19924;-80
2022/01/04 01:36:54;;;;;;;;;;;6.50;99.90;;;;;;5081618;28;19956;-80
2022/01/04 01:39:20;;;;;;;;;;;6.50;99.90;;;;;;5081998;28;20363;-80
2022/01/04 01:41:46;;;;;;;;;;;6.60;99.90;;;;;;5083079;28;19967;-80
2022/01/04 01:44:14;;;;;;;;;;;6.50;99.90;;;;;;5082485;28;20391;-80
2022/01/04 01:46:41;;;;;;;;;;;6.50;99.90;;;;;;5082983;28;19924;-80
2022/01/04 01:49:07;;;;;;;;;;;6.60;99.90;;;;;;5081786;28;19967;-80
2022/01/04 01:51:34;;;;;;;;;;;6.60;99.90;;;;;;5081694;28;19963;-80
2022/01/04 01:54:00;;;;;;;;;;;6.60;99.90;;;;;;5082348;28;19975;-80
2022/01/04 01:56:29;;;;;;;;;;;6.50;99.90;;;;;;5082735;28;20283;-80
2022/01/04 01:58:55;;;;;;;;;;;6.50;99.90;;;;;;5083349;28;20383;-80
2022/01/04 02:01:23;;;;;;;;;;;6.50;99.90;;;;;;5083301;28;19971;-80
2022/01/04 02:03:49;;;;;;;;;;;6.50;99.90;;;;;;5083316;28;19924;-79
2022/01/04 02:06:16;;;;;;;;;;;6.50;99.90;;;;;;5083548;28;20001;-80
2022/01/04 02:08:42;;;;;;;;;;;6.50;99.90;;;;;;5081870;28;19947;-80
2022/01/04 02:11:09;;;;;;;;;;;6.40;99.90;;;;;;5084506;28;19925;-79
2022/01/04 02:13:35;;;;;;;;;;;6.40;99.90;;;;;;5087352;28;19932;-79
2022/01/04 02:16:03;;;;;;;;;;;6.50;99.90;;;;;;5084541;28;20332;-80
2022/01/04 02:18:30;;;;;;;;;;;6.50;99.90;;;;;;5083855;28;19924;-79
2022/01/04 02:20:58;;;;;;;;;;;6.50;99.90;;;;;;5083016;28;19978;-79
2022/01/04 02:23:25;;;;;;;;;;;6.60;99.90;;;;;;5081324;28;19928;-80
2022/01/04 02:25:51;;;;;;;;;;;6.50;99.90;;;;;;5081993;28;19924;-80
2022/01/04 02:28:20;;;;;;;;;;;6.50;99.90;;;;;;5082958;28;19925;-80
2022/01/04 02:30:47;;;;;;;;;;;6.50;99.90;;;;;;5083211;28;20334;-82
2022/01/04 02:33:14;;;;;;;;;;;6.60;99.90;;;;;;5082739;28;20019;-81
2022/01/04 02:35:41;;;;;;;;;;;6.60;99.90;;;;;;5082872;28;19931;-80
2022/01/04 02:38:10;;;;;;;;;;;6.50;99.90;;;;;;5082392;28;19971;-80
2022/01/04 02:40:36;;;;;;;;;;;6.50;99.90;;;;;;5082140;28;19971;-81
2022/01/04 02:43:02;;;;;;;;;;;6.60;99.90;;;;;;5082160;28;19935;-80
2022/01/04 02:45:29;;;;;;;;;;;6.50;99.90;;;;;;5082253;28;19924;-81
2022/01/04 02:47:57;;;;;;;;;;;6.60;99.90;;;;;;5082537;28;19931;-80
2022/01/04 02:50:24;;;;;;;;;;;6.70;99.90;;;;;;5085297;28;19944;-79
2022/01/04 02:52:51;;;;;;;;;;;6.60;99.90;;;;;;5088395;28;19939;-79
2022/01/04 02:55:19;;;;;;;;;;;6.60;99.90;;;;;;5088918;28;19931;-79
2022/01/04 02:57:45;;;;;;;;;;;6.60;99.90;;;;;;5088014;28;19925;-79
2022/01/04 03:00:14;;;;;;;;;;;6.60;99.90;;;;;;5089110;28;19947;-79
2022/01/04 03:02:41;;;;;;;;;;;6.60;99.90;;;;;;5089563;28;19938;-79
2022/01/04 03:05:08;;;;;;;;;;;6.60;99.90;;;;;;5089726;28;19952;-79
2022/01/04 03:07:34;;;;;;;;;;;6.60;99.90;;;;;;5088855;28;19978;-79
2022/01/04 03:10:01;;;;;;;;;;;6.60;99.90;;;;;;5088882;28;19931;-79
2022/01/04 03:12:29;;;;;;;;;;;6.50;99.90;;;;;;5088958;28;19924;-80
2022/01/04 03:14:55;;;;;;;;;;;5.80;99.90;;;;;;5089183;28;20275;-79
2022/01/04 03:17:21;;;;;;;;;;;6.70;99.90;;;;;;5078065;28;19967;-80
2022/01/04 03:19:48;;;;;;;;;;;6.70;99.90;;;;;;5080228;28;19924;-79
2022/01/04 03:22:14;;;;;;;;;;;6.60;99.90;;;;;;5088714;28;19955;-79
2022/01/04 03:24:41;;;;;;;;;;;6.70;99.90;;;;;;5087625;28;19925;-80
2022/01/04 03:27:07;;;;;;;;;;;6.80;99.90;;;;;;5086228;28;19924;-79
2022/01/04 03:29:35;;;;;;;;;;;6.70;99.90;;;;;;5088497;28;19932;-80
2022/01/04 03:32:02;;;;;;;;;;;6.60;99.90;;;;;;5084823;28;19975;-78
2022/01/04 03:34:28;;;;;;;;;;;6.70;99.90;;;;;;5084395;28;19925;-78
2022/01/04 03:36:55;;;;;;;;;;;6.70;99.90;;;;;;5087775;28;20330;-78
2022/01/04 03:39:21;;;;;;;;;;;6.70;99.90;;;;;;5087528;28;19947;-79
2022/01/04 03:41:47;;;;;;;;;;;6.70;99.90;;;;;;5088325;28;19932;-78
2022/01/04 03:44:18;;;;;;;;;;;6.70;99.90;;;;;;5090807;28;19928;-79
2022/01/04 03:46:46;;;;;;;;;;;6.70;99.90;;;;;;5087609;28;19929;-78
2022/01/04 03:49:13;;;;;;;;;;;6.60;99.90;;;;;;5089167;28;19925;-78
2022/01/04 03:51:39;;;;;;;;;;;6.70;99.90;;;;;;5088323;28;19924;-78
2022/01/04 03:54:05;;;;;;;;;;;6.70;99.90;;;;;;5088372;28;19939;-78
2022/01/04 03:56:32;;;;;;;;;;;6.70;99.90;;;;;;5088227;28;20271;-78
2022/01/04 03:58:58;;;;;;;;;;;6.70;99.90;;;;;;5086311;28;19924;-79
2022/01/04 04:01:25;;;;;;;;;;;6.60;99.90;;;;;;5084696;28;19935;-80
2022/01/04 04:03:53;;;;;;;;;;;6.70;99.90;;;;;;5085374;28;19967;-80
2022/01/04 04:06:19;;;;;;;;;;;6.50;99.90;;;;;;5085265;28;19960;-79
2022/01/04 04:08:46;;;;;;;;;;;6.70;99.90;;;;;;5087178;28;20306;-78
2022/01/04 04:11:12;;;;;;;;;;;6.70;99.90;;;;;;5087373;28;19925;-78
2022/01/04 04:13:39;;;;;;;;;;;6.70;99.90;;;;;;5086333;28;19924;-80
2022/01/04 04:16:05;;;;;;;;;;;6.70;99.90;;;;;;5083549;28;19928;-80
2022/01/04 04:18:32;;;;;;;;;;;6.70;99.90;;;;;;5086128;28;19932;-79
2022/01/04 04:21:00;;;;;;;;;;;6.60;99.90;;;;;;5086556;28;19986;-79
2022/01/04 04:23:26;;;;;;;;;;;7.00;99.90;;;;;;5086755;28;19932;-78
2022/01/04 04:25:52;;;;;;;;;;;6.60;99.90;;;;;;5086462;28;19931;-78
2022/01/04 04:28:19;;;;;;;;;;;6.50;99.90;;;;;;5086329;28;19931;-79
2022/01/04 04:30:45;;;;;;;;;;;6.40;99.90;;;;;;5099097;22;20391;-82
2022/01/04 04:33:12;;;;;;;;;;;6.40;99.90;;;;;;5084238;28;19932;-81
2022/01/04 04:35:38;;;;;;;;;;;6.50;99.90;;;;;;5084797;28;19975;-82
2022/01/04 04:38:07;;;;;;;;;;;6.50;99.90;;;;;;5083986;28;19929;-83
2022/01/04 04:40:34;;;;;;;;;;;6.50;99.90;;;;;;5081965;28;20018;-82
2022/01/04 04:43:00;;;;;;;;;;;6.50;99.90;;;;;;5081757;28;19978;-81
2022/01/04 04:45:29;;;;;;;;;;;6.30;99.90;;;;;;5080425;28;19925;-83
2022/01/04 04:47:55;;;;;;;;;;;6.40;99.90;;;;;;5080106;28;19930;-82
2022/01/04 04:50:22;;;;;;;;;;;6.10;99.90;;;;;;5080037;28;19931;-82
2022/01/04 04:52:48;;;;;;;;;;;6.10;99.90;;;;;;5080134;28;19924;-82
2022/01/04 04:55:16;;;;;;;;;;;6.60;99.90;;;;;;5080511;28;19974;-82
2022/01/04 04:57:42;;;;;;;;;;;6.40;99.90;;;;;;5080298;28;20524;-82
2022/01/04 05:00:10;;;;;;;;;;;6.20;99.90;;;;;;5083911;28;19924;-82
2022/01/04 05:02:37;;;;;;;;;;;6.50;99.90;;;;;;5082742;28;19925;-81
2022/01/04 05:05:04;;;;;;;;;;;6.40;99.90;;;;;;5089130;28;19924;-81
2022/01/04 05:07:31;;;;;;;;;;;6.50;99.90;;;;;;5090257;28;19924;-82
2022/01/04 05:09:58;;;;;;;;;;;6.40;99.90;;;;;;5095740;28;19947;-83
2022/01/04 05:12:25;;;;;;;;;;;6.40;99.90;;;;;;5083411;28;19924;-82
2022/01/04 05:14:52;;;;;;;;;;;6.30;99.90;;;;;;5079294;28;19924;-82
2022/01/04 05:17:18;;;;;;;;;;;6.40;99.90;;;;;;5079185;28;19931;-82
2022/01/04 05:19:45;;;;;;;;;;;6.20;99.90;;;;;;5079568;28;19925;-82
2022/01/04 05:22:11;;;;;;;;;;;6.30;99.90;;;;;;5079561;28;19967;-82
2022/01/04 05:24:38;;;;;;;;;;;6.30;99.90;;;;;;5079198;28;19971;-82
2022/01/04 05:27:05;;;;;;;;;;;6.30;99.90;;;;;;5079581;28;19968;-81
2022/01/04 05:29:33;;;;;;;;;;;6.40;99.90;;;;;;5080721;28;19928;-82
2022/01/04 05:31:59;;;;;;;;;;;6.30;99.90;;;;;;5080062;28;19931;-81
2022/01/04 05:34:26;;;;;;;;;;;6.40;99.90;;;;;;5079636;28;19950;-81
2022/01/04 05:36:53;;;;;;;;;;;6.40;99.90;;;;;;5080931;28;20027;-81
2022/01/04 05:39:19;;;;;;;;;;;6.30;99.90;;;;;;5079372;28;19924;-82
2022/01/04 05:41:46;;;;;;;;;;;6.30;99.90;;;;;;5079206;28;19931;-82
2022/01/04 05:44:12;;;;;;;;;;;6.50;99.90;;;;;;5079460;28;20428;-82
2022/01/04 05:46:40;;;;;;;;;;;6.30;99.90;;;;;;5079154;28;19977;-81
2022/01/04 05:49:07;;;;;;;;;;;6.20;99.90;;;;;;5079083;28;19924;-83
2022/01/04 05:51:33;;;;;;;;;;;6.10;99.90;;;;;;5081084;28;20017;-82
2022/01/04 05:54:00;;;;;;;;;;;6.20;99.90;;;;;;5079025;28;19924;-82
2022/01/04 05:56:26;;;;;;;;;;;6.40;99.90;;;;;;5080217;28;19928;-81
2022/01/04 05:58:53;;;;;;;;;;;6.10;99.90;;;;;;5079189;28;19978;-82
2022/01/04 06:01:19;;;;;;;;;;;6.20;99.90;;;;;;5079344;28;20048;-82
2022/01/04 06:03:50;;;;;;;;;;;6.40;99.90;;;;;;5078822;28;19924;-82
2022/01/04 06:06:17;;;;;;;;;;;6.40;99.90;;;;;;5080073;28;19930;-82
2022/01/04 06:08:44;;;;;;;;;;;6.40;99.90;;;;;;5079783;28;19924;-82
2022/01/04 06:11:29;;;;;;;;;;;6.10;99.90;;;;;;5084202;28;19925;-82
2022/01/04 06:16:41;;;;;;;;;;;6.30;99.90;;;;;;5099124;28;19916;-83
2022/01/04 06:19:09;;;;;;;;;;;6.30;99.90;;;;;;5099317;28;19915;-85
2022/01/04 06:21:36;;;;;;;;;;;6.40;99.90;;;;;;5099320;28;19916;-83
2022/01/04 06:24:02;;;;;;;;;;;6.30;99.90;;;;;;5099533;28;19924;-83
2022/01/04 06:26:29;;;;;;;;;;;6.30;99.90;;;;;;5098984;28;19931;-82
2022/01/04 06:28:56;;;;;;;;;;;6.50;99.90;;;;;;5088903;28;19924;-83
2022/01/04 06:31:22;;;;;;;;;;;6.40;99.90;;;;;;5080298;28;19924;-82
2022/01/04 06:33:49;;;;;;;;;;;6.40;99.90;;;;;;5079257;28;19924;-82
2022/01/04 06:36:17;;;;;;;;;;;6.50;99.90;;;;;;5079813;28;19924;-83
2022/01/04 06:38:43;;;;;;;;;;;6.20;99.90;;;;;;5091216;28;20042;-83
2022/01/04 06:41:10;;;;;;;;;;;6.50;99.90;;;;;;5091042;28;19946;-82
2022/01/04 06:43:36;;;;;;;;;;;6.50;99.90;;;;;;5090670;28;19947;-82
2022/01/04 06:46:03;;;;;;;;;;;6.60;99.90;;;;;;5083393;28;19970;-82
2022/01/04 06:48:29;;;;;;;;;;;6.50;99.90;;;;;;5080092;28;19925;-83
2022/01/04 06:50:57;;;;;;;;;;;6.50;99.90;;;;;;5080256;28;19974;-83
2022/01/04 06:53:24;;;;;;;;;;;6.60;99.90;;;;;;5081277;28;19925;-83
2022/01/04 06:55:52;;;;;;;;;;;6.50;99.90;;;;;;5079763;28;19982;-83
2022/01/04 06:58:19;;;;;;;;;;;6.60;99.90;;;;;;5079976;28;19924;-83
2022/01/04 07:00:46;;;;;;;;;;;6.60;99.90;;;;;;5080979;28;19929;-83
2022/01/04 07:03:12;;;;;;;;;;;6.60;99.90;;;;;;5079612;28;19954;-83
2022/01/04 07:05:39;;;;;;;;;;;6.70;99.90;;;;;;5080172;28;19947;-82
2022/01/04 07:08:05;;;;;;;;;;;6.70;99.90;;;;;;5078088;28;20437;-82
2022/01/04 07:10:33;;;;;;;;;;;6.80;99.90;;;;;;5082699;28;19925;-82
2022/01/04 07:12:59;;;;;;;;;;;6.80;99.90;;;;;;5082498;28;19925;-82
2022/01/04 07:15:26;;;;;;;;;;;6.70;99.90;;;;;;5082044;28;19924;-82
2022/01/04 07:17:53;;;;;;;;;;;6.70;99.90;;;;;;5082248;28;19970;-82
2022/01/04 07:20:19;;;;;;;;;;;6.80;99.90;;;;;;5081639;28;20367;-82
2022/01/04 07:22:46;;;;;;;;;;;6.80;99.90;;;;;;5084675;28;19924;-82
2022/01/04 07:25:12;;;;;;;;;;;6.80;99.90;;;;;;5092962;28;19925;-82
2022/01/04 07:27:40;;;;;;;;;;;6.80;99.90;;;;;;5095242;28;19946;-82
2022/01/04 07:30:07;;;;;;;;;;;6.70;99.90;;;;;;5095394;28;19926;-83
2022/01/04 07:32:33;;;;;;;;;;;7.00;99.90;;;;;;5096883;28;19924;-82
2022/01/04 07:35:00;;;;;;;;;;;6.90;99.90;;;;;;5094116;28;19925;-82
2022/01/04 07:37:26;;;;;;;;;;;7.10;99.90;;;;;;5094917;28;20429;-82
2022/01/04 07:39:53;;;;;;;;;;;6.90;99.90;;;;;;5095851;28;19931;-83
2022/01/04 07:42:19;;;;;;;;;;;6.90;99.90;;;;;;5097970;28;19924;-82
2022/01/04 07:44:47;;;;;;;;;;;7.00;99.90;;;;;;5098078;28;19912;-82
2022/01/04 07:47:14;;;;;;;;;;;7.00;99.90;;;;;;5098564;28;19924;-82
2022/01/04 07:49:40;;;;;;;;;;;7.10;99.90;;;;;;5099477;28;19936;-82
2022/01/04 07:52:06;;;;;;;;;;;7.10;99.90;;;;;;5100243;28;19925;-82
2022/01/04 07:54:33;;;;;;;;;;;7.00;99.90;;;;;;5101636;28;19909;-83
2022/01/04 07:56:59;;;;;;;;;;;7.10;99.90;;;;;;5101526;28;19954;-83
2022/01/04 07:59:29;;;;;;;;;;;7.10;99.90;;;;;;5101660;28;19925;-84
2022/01/04 08:01:57;;;;;;;;;;;7.10;99.90;;;;;;5101994;28;19916;-86
2022/01/04 08:04:24;;;;;;;;;;;7.00;99.90;;;;;;5101792;28;19956;-84
2022/01/04 08:06:51;;;;;;;;;;;7.20;99.90;;;;;;5101352;28;19931;-83
2022/01/04 08:09:17;;;;;;;;;;;7.20;99.90;;;;;;5100125;28;19992;-83
2022/01/04 08:11:44;;;;;;;;;;;7.20;99.90;;;;;;5099026;28;19925;-83
2022/01/04 08:14:10;;;;;;;;;;;7.30;99.90;;;;;;5100088;28;19931;-83
2022/01/04 08:16:37;;;;;;;;;;;7.30;99.90;;;;;;5100509;28;19925;-83
2022/01/04 08:19:04;;;;;;;;;;;7.20;99.90;;;;;;5090563;28;19925;-83
2022/01/04 08:21:31;;;;;;;;;;;7.20;99.90;;;;;;5086165;28;19925;-83
2022/01/04 08:23:57;;;;;;;;;;;7.20;99.90;;;;;;5085531;28;19925;-82
2022/01/04 08:26:24;;;;;;;;;;;7.30;99.90;;;;;;5082474;28;19970;-82
2022/01/04 08:28:51;;;;;;;;;;;7.30;99.90;;;;;;5082507;28;19924;-83
2022/01/04 08:31:17;;;;;;;;;;;7.40;99.90;;;;;;5082128;28;19932;-84
2022/01/04 08:33:44;;;;;;;;;;;7.30;99.90;;;;;;5082587;28;19978;-83
2022/01/04 08:36:12;;;;;;;;;;;7.40;99.90;;;;;;5082086;28;19924;-83
2022/01/04 08:38:39;;;;;;;;;;;7.40;99.90;;;;;;5083173;28;19924;-83
2022/01/04 08:41:06;;;;;;;;;;;7.40;99.90;;;;;;5081049;28;20365;-83
2022/01/04 08:43:32;;;;;;;;;;;7.50;99.90;;;;;;5081212;28;19932;-82
2022/01/04 08:46:00;;;;;;;;;;;7.50;99.90;;;;;;5081993;28;19963;-82
2022/01/04 08:48:26;;;;;;;;;;;7.60;99.90;;;;;;5082562;28;19978;-82
2022/01/04 08:50:53;;;;;;;;;;;7.50;99.90;;;;;;5087953;28;19924;-82
2022/01/04 08:53:21;;;;;;;;;;;7.50;99.90;;;;;;5092616;28;19932;-82
2022/01/04 08:55:47;;;;;;;;;;;7.60;99.90;;;;;;5093724;28;19924;-82
2022/01/04 08:58:14;;;;;;;;;;;7.60;99.90;;;;;;5087487;28;20387;-83
2022/01/04 09:00:42;;;;;;;;;;;7.50;99.90;;;;;;5080059;28;19971;-81
2022/01/04 09:03:09;;;;;;;;;;;7.40;99.90;;;;;;5084258;28;19924;-81
2022/01/04 09:05:35;;;;;;;;;;;7.70;99.90;;;;;;5094082;28;19935;-81
2022/01/04 09:08:02;;;;;;;;;;;7.50;99.90;;;;;;5090405;28;19925;-81
2022/01/04 09:10:30;;;;;;;;;;;7.70;99.90;;;;;;5079643;28;19931;-82
2022/01/04 09:13:01;;;;;;;;;;;7.60;99.90;;;;;;5079507;28;20028;-82
2022/01/04 09:15:32;;;;;;;;;;;7.60;99.90;;;;;;5081213;28;19930;-82
2022/01/04 09:20:45;;;;;;;;;;;7.70;99.90;;;;;;5099704;28;19972;-84
2022/01/04 09:23:12;;;;;;;;;;;7.70;99.90;;;;;;5100104;28;19933;-82
2022/01/04 09:25:40;;;;;;;;;;;7.60;99.90;;;;;;5099976;28;19919;-82
2022/01/04 09:28:06;;;;;;;;;;;7.70;99.90;;;;;;5100002;28;19925;-82
2022/01/04 09:30:33;;;;;;;;;;;7.70;99.90;;;;;;5099854;28;19924;-82
2022/01/04 09:33:01;;;;;;;;;;;7.80;99.90;;;;;;5096446;28;19932;-81
2022/01/04 09:35:27;;;;;;;;;;;7.80;99.90;;;;;;5089752;28;19924;-82
2022/01/04 09:37:54;;;;;;;;;;;7.80;99.90;;;;;;5086103;28;19924;-81
2022/01/04 09:40:20;;;;;;;;;;;7.80;99.90;;;;;;5082879;28;19963;-80
2022/01/04 09:42:49;;;;;;;;;;;7.70;99.90;;;;;;5081149;28;20362;-80
2022/01/04 09:45:16;;;;;;;;;;;7.50;99.90;;;;;;5079309;28;20453;-80
2022/01/04 09:47:42;;;;;;;;;;;7.80;99.90;;;;;;5078643;28;19947;-81
2022/01/04 09:50:10;;;;;;;;;;;7.80;99.90;;;;;;5078844;28;19924;-82
2022/01/04 09:52:39;;;;;;;;;;;7.80;99.90;;;;;;5086279;28;19928;-82
2022/01/04 09:55:06;;;;;;;;;;;7.70;99.90;;;;;;5083673;28;19950;-83
2022/01/04 09:57:33;;;;;;;;;;;7.80;99.90;;;;;;5079070;28;20019;-82
2022/01/04 10:00:01;;;;;;;;;;;7.70;99.90;;;;;;5080586;28;19924;-82
2022/01/04 10:02:30;;;;;;;;;;;8.10;99.90;;;;;;5082850;28;19925;-83
2022/01/04 10:05:11;;;;;;;;;;;7.60;99.90;;;;;;5082299;28;19931;-83
2022/01/04 10:07:38;;;;;;;;;;;7.40;99.90;;;;;;5082721;28;19974;-83
2022/01/04 10:10:05;;;;;;;;;;;7.60;99.90;;;;;;5078409;28;19924;-84
2022/01/04 10:12:47;;;;;;;;;;;7.50;99.90;;;;;;5077930;28;21435;-84
2022/01/04 10:15:28;;;;;;;;;;;7.50;99.90;;;;;;5080948;28;19935;-84
2022/01/04 10:17:55;;;;;;;;;;;7.50;99.90;;;;;;5082334;28;19967;-83
2022/01/04 10:20:21;;;;;;;;;;;7.60;99.90;;;;;;5082121;28;20371;-84
2022/01/04 10:22:50;;;;;;;;;;;7.50;99.90;;;;;;5081076;28;19924;-83
2022/01/04 10:25:19;;;;;;;;;;;7.60;99.90;;;;;;5079810;28;19928;-84
2022/01/04 10:27:47;;;;;;;;;;;7.40;99.90;;;;;;5081116;28;19925;-84
2022/01/04 10:30:16;;;;;;;;;;;7.50;99.90;;;;;;5081542;28;20387;-84
2022/01/04 10:32:44;;;;;;;;;;;7.60;99.90;;;;;;5084771;28;19999;-83
2022/01/04 10:35:10;;;;;;;;;;;7.50;99.90;;;;;;5091665;28;19928;-83
2022/01/04 10:37:39;;;;;;;;;;;7.30;99.90;;;;;;5089620;28;19924;-82
2022/01/04 10:40:06;;;;;;;;;;;7.60;99.90;;;;;;5094835;28;19908;-82
2022/01/04 10:42:33;;;;;;;;;;;7.60;99.90;;;;;;5096533;28;19929;-82
2022/01/04 10:44:59;;;;;;;;;;;7.60;99.90;;;;;;5095936;28;19935;-82
2022/01/04 10:47:28;;;;;;;;;;;7.60;99.90;;;;;;5088663;28;19936;-83
2022/01/04 10:49:54;;;;;;;;;;;7.60;99.90;;;;;;5088168;28;19974;-84
2022/01/04 10:52:31;;;;;;;;;;;7.50;99.90;;;;;;5089813;28;19925;-83
2022/01/04 10:55:11;;;;;;;;;;;7.50;99.90;;;;;;5089699;28;19924;-82
2022/01/04 10:57:38;;;;;;;;;;;7.60;99.90;;;;;;5094183;28;19951;-82
2022/01/04 11:00:12;;;;;;;;;;;7.50;99.90;;;;;;5093111;28;19928;-82
2022/01/04 11:02:40;;;;;;;;;;;7.50;99.90;;;;;;5094327;28;20441;-82
2022/01/04 11:05:13;;;;;;;;;;;7.60;99.90;;;;;;5092910;28;19924;-81
2022/01/04 11:07:55;;;;;;;;;;;7.50;99.90;;;;;;5093138;28;19924;-79
2022/01/04 11:10:21;;;;;;;;;;;7.40;99.90;;;;;;5091642;28;19947;-79
2022/01/04 11:12:48;;;;;;;;;;;7.40;99.90;;;;;;5093932;28;19924;-80
2022/01/04 11:15:16;;;;;;;;;;;;;;;;;;5095091;28;19947;-81
2022/01/04 11:17:43;;;;;;;;;;;;;;;;;;5095875;28;19946;-81
2022/01/04 11:20:10;;;;;;;;;;;;;;;;;;5093375;28;19932;-80
2022/01/04 11:22:38;;;;;;;;;;;7.60;99.90;;;;;;5092664;28;19935;-80
2022/01/04 11:25:05;;;;;;;;;;;7.60;99.90;;;;;;5088294;28;19932;-80
2022/01/04 11:27:35;;;;;;;;;;;7.50;99.90;;;;;;5084076;28;19924;-81
2022/01/04 11:30:03;;;;;;;;;;;7.40;99.90;;;;;;5079849;28;20371;-81
2022/01/04 11:32:31;;;;;;;;;;;7.30;99.90;;;;;;5078073;28;19974;-80
2022/01/04 11:35:03;;;;;;;;;;;7.40;99.90;;;;;;5085445;28;19928;-81
2022/01/04 11:37:30;;;;;;;;;;;7.30;99.90;;;;;;5086361;28;20399;-82
2022/01/04 11:39:58;;;;;;;;;;;7.50;99.90;;;;;;5080082;28;19925;-83
2022/01/04 11:42:45;;;;;;;;;;;7.20;99.90;;;;;;5077123;28;19924;-82
2022/01/04 11:45:12;;;;;;;;;;;7.40;99.90;;;;;;5071708;28;20017;-81
2022/01/04 11:47:41;;;;;;;;;;;7.30;99.90;;;;;;5077269;28;19974;-81
2022/01/04 11:50:09;;;;;;;;;;;;;;;;;;5076356;28;19928;-80
2022/01/04 11:52:37;;;;;;;;;;;;;;;;;;5076291;28;19928;-81
2022/01/04 11:55:16;;;;;;;;;;;7.30;99.90;;;;;;5078743;28;19925;-83
2022/01/04 11:57:42;;;;;;;;;;;7.30;99.90;;;;;;5081070;28;19928;-80
2022/01/04 12:00:09;;;;;;;;;;;7.30;99.90;;;;;;5081185;28;19970;-80
2022/01/04 12:02:38;;;;;;;;;;;7.30;99.90;;;;;;5080783;28;20001;-80
2022/01/04 12:05:13;;;;;;;;;;;7.30;99.90;;;;;;5080328;28;20383;-79
2022/01/04 12:07:46;;;;;;;;;;;7.40;99.90;;;;;;5089994;28;19978;-80
2022/01/04 12:10:31;;;;;;;;;;;7.30;99.90;;;;;;5095220;28;19913;-80
2022/01/04 12:12:59;;;;;;;;;;;7.30;99.90;;;;;;5093585;28;19929;-81
2022/01/04 12:15:46;;;;;;;;;;;7.40;99.90;;;;;;5094275;28;19977;-80
2022/01/04 12:18:27;;;;;;;;;;;7.30;99.90;;;;;;5097251;28;19908;-81
2022/01/04 12:20:54;;;;;;;;;;;7.20;99.90;;;;;;5091314;28;19924;-80
2022/01/04 12:23:36;;;;;;;;;;;7.30;99.90;;;;;;5097948;28;19909;-80
2022/01/04 12:26:18;;;;;;;;;;;7.30;99.90;;;;;;5080545;28;19924;-79
2022/01/04 12:29:06;;;;;;;;;;;7.40;99.90;;;;;;5090967;28;19951;-80
2022/01/04 12:31:35;;;;;;;;;;;7.50;99.90;;;;;;5100073;28;19909;-80
2022/01/04 12:34:02;;;;;;;;;;;7.40;99.90;;;;;;5101331;28;19936;-80
2022/01/04 12:36:31;;;;;;;;;;;7.40;99.90;;;;;;5100958;28;19933;-80
2022/01/04 12:38:58;;;;;;;;;;;7.30;99.90;;;;;;5100877;28;19916;-80
2022/01/04 12:41:25;;;;;;;;;;;7.40;99.90;;;;;;5100395;28;19912;-80
2022/01/04 12:43:56;;;;;;;;;;;7.40;99.90;;;;;;5093462;28;19983;-81
2022/01/04 12:46:27;;;;;;;;;;;7.30;99.90;;;;;;5086625;28;19925;-82
2022/01/04 12:48:55;;;;;;;;;;;7.30;99.90;;;;;;5080122;28;20375;-78
2022/01/04 12:51:23;;;;;;;;;;;7.40;99.90;;;;;;5081519;28;19925;-79
2022/01/04 12:53:50;;;;;;;;;;;7.30;99.90;;;;;;5080845;28;20004;-79
2022/01/04 12:56:16;;;;;;;;;;;7.30;99.90;;;;;;5080584;28;19931;-80
2022/01/04 12:58:43;;;;;;;;;;;7.40;99.90;;;;;;5083370;28;19924;-81
2022/01/04 13:01:11;;;;;;;;;;;7.60;99.90;;;;;;5087066;28;19924;-80
2022/01/04 13:03:38;;;;;;;;;;;7.30;99.90;;;;;;5082295;28;19954;-80
2022/01/04 13:06:05;;;;;;;;;;;7.50;99.90;;;;;;5080815;28;19929;-79
2022/01/04 13:08:32;;;;;;;;;;;7.40;99.90;;;;;;5080051;28;19924;-80
2022/01/04 13:11:02;;;;;;;;;;;7.50;99.90;;;;;;5084349;28;19935;-79
2022/01/04 13:13:30;;;;;;;;;;;7.50;99.90;;;;;;5083371;28;19970;-80
2022/01/04 13:15:56;;;;;;;;;;;7.20;99.90;;;;;;5080515;28;20302;-80
2022/01/04 13:18:28;;;;;;;;;;;6.90;99.90;;;;;;5079790;28;19925;-80
2022/01/04 13:21:05;;;;;;;;;;;7.50;99.90;;;;;;5079102;28;19924;-80
2022/01/04 13:23:36;;;;;;;;;;;7.60;99.90;;;;;;5078136;28;19974;-81
2022/01/04 13:26:03;;;;;;;;;;;7.40;99.90;;;;;;5082291;28;19928;-79
2022/01/04 13:28:29;;;;;;;;;;;7.50;99.90;;;;;;5086351;28;20391;-80
2022/01/04 13:30:56;;;;;;;;;;;7.60;99.90;;;;;;5087011;28;19924;-80
2022/01/04 13:33:23;;;;;;;;;;;7.60;99.90;;;;;;5087645;28;19946;-80
2022/01/04 13:35:53;;;;;;;;;;;7.50;99.90;;;;;;5087951;28;19932;-80
2022/01/04 13:38:26;;;;;;;;;;;7.60;99.90;;;;;;5081371;28;20045;-80
2022/01/04 13:40:56;;;;;;;;;;;7.50;99.90;;;;;;5079134;28;19924;-79
2022/01/04 13:43:27;;;;;;;;;;;7.40;99.90;;;;;;5079961;28;20306;-80
2022/01/04 13:45:55;;;;;;;;;;;7.40;99.90;;;;;;5079898;28;19967;-81
2022/01/04 13:48:22;;;;;;;;;;;7.50;99.90;;;;;;5084534;28;19932;-81
2022/01/04 13:50:49;;;;;;;;;;;7.50;99.90;;;;;;5085676;28;19929;-79
2022/01/04 13:53:17;;;;;;;;;;;7.50;99.90;;;;;;5081256;28;20383;-80
2022/01/04 13:55:45;;;;;;;;;;;7.20;99.90;;;;;;5082720;28;19924;-80
2022/01/04 13:58:11;;;;;;;;;;;7.40;99.90;;;;;;5080739;28;19925;-81
2022/01/04 14:00:39;;;;;;;;;;;7.40;99.90;;;;;;5080284;28;19925;-79
2022/01/04 14:03:20;;;;;;;;;;;7.50;99.90;;;;;;5086514;28;19931;-81
2022/01/04 14:05:46;;;;;;;;;;;7.50;99.90;;;;;;5084411;28;19924;-79
2022/01/04 14:08:13;;;;;;;;;;;7.60;99.90;;;;;;5083055;28;19924;-80
2022/01/04 14:10:48;;;;;;;;;;;7.70;99.90;;;;;;5087109;28;19978;-80
2022/01/04 14:13:46;;;;;;;;;;;7.50;99.90;;;;;;5085394;28;19924;-80
2022/01/04 14:16:13;;;;;;;;;;;7.50;99.90;;;;;;5024727;28;20399;-79
2022/01/04 14:18:54;;;;;;;;;;;7.30;99.90;;;;;;5068540;28;19924;-80
2022/01/04 14:21:28;;;;;;;;;;;7.40;99.90;;;;;;5080541;28;19931;-81
2022/01/04 14:23:55;;;;;;;;;;;7.40;99.90;;;;;;5080925;28;19925;-80
2022/01/04 14:26:23;;;;;;;;;;;7.70;99.90;;;;;;5080428;28;19956;-80
2022/01/04 14:28:49;;;;;;;;;;;7.20;99.90;;;;;;5080489;28;19999;-80
2022/01/04 14:31:16;;;;;;;;;;;7.30;99.90;;;;;;5079836;28;19924;-79
2022/01/04 14:33:43;;;;;;;;;;;7.50;99.90;;;;;;5080988;28;19971;-80
2022/01/04 14:36:09;;;;;;;;;;;7.40;99.90;;;;;;5080348;28;19971;-81
2022/01/04 14:38:36;;;;;;;;;;;7.40;99.90;;;;;;5084368;28;19946;-80
2022/01/04 14:41:02;;;;;;;;;;;7.40;99.90;;;;;;5085599;28;19960;-80